sensor_id;sensor_type;location;lat;lon;timestamp;temperature;humidity
11820;DHT22;5967;48.944;9.240;2022-07-23T00:00:00;25.00;99.90
11820;DHT22;5967;48.944;9.240;2022-07-23T00:02:26;24.90;99.90
11820;DHT22;5967;48.944;9.240;2022-07-23T00:04:51;24.90;99.90
11820;DHT22;5967;48.944;9.240;2022-07-23T00:07:17;24.90;99.90
11820;DHT22;5967;48.944;9.240;2022-07-23T00:09:43;24.80;99.90
11820;DHT22;5967;48.944;9.240;2022-07-23T00:12:08;24.90;99.90
11820;DHT22;5967;48.944;9.240;2022-07-23T00:14:34;24.90;99.90
11820;DHT22;5967;48.944;9.240;2022-07-23T00:17:02;24.90;99.90
11820;DHT22;5967;48.944;9.240;2022-07-23T00:19:30;24.90;99.90
11820;DHT22;5967;48.944;9.240;2022-07-23T00:21:56;24.90;99.90
11820;DHT22;5967;48.944;9.240;2022-07-23T00:24:21;24.90;99.90
11820;DHT22;5967;48.944;9.240;2022-07-23T00:26:50;24.90;99.90
11820;DHT22;5967;48.944;9.240;2022-07-23T00:29:19;25.00;99.90
11820;DHT22;5967;48.944;9.240;2022-07-23T00:31:44;25.00;99.90
11820;DHT22;5967;48.944;9.240;2022-07-23T00:34:10;25.00;99.90
11820;DHT22;5967;48.944;9.240;2022-07-23T00:36:36;25.00;99.90
11820;DHT22;5967;48.944;9.240;2022-07-23T00:39:02;25.00;99.90
11820;DHT22;5967;48.944;9.240;2022-07-23T00:41:27;25.00;99.90
11820;DHT22;5967;48.944;9.240;2022-07-23T00:43:53;25.00;99.90
11820;DHT22;5967;48.944;9.240;2022-07-23T00:46:22;24.90;99.90
11820;DHT22;5967;48.944;9.240;2022-07-23T00:48:50;24.90;99.90
11820;DHT22;5967;48.944;9.240;2022-07-23T00:51:16;24.90;99.90
11820;DHT22;5967;48.944;9.240;2022-07-23T00:53:42;24.90;99.90
11820;DHT22;5967;48.944;9.240;2022-07-23T00:56:08;24.90;99.90
11820;DHT22;5967;48.944;9.240;2022-07-23T00:58:35;24.90;99.90
11820;DHT22;5967;48.944;9.240;2022-07-23T01:01:04;24.80;99.90
11820;DHT22;5967;48.944;9.240;2022-07-23T01:03:30;24.80;99.90
11820;DHT22;5967;48.944;9.240;2022-07-23T01:05:57;24.70;99.90
11820;DHT22;5967;48.944;9.240;2022-07-23T01:08:23;24.70;99.90
11820;DHT22;5967;48.944;9.240;2022-07-23T01:10:49;24.60;99.90
11820;DHT22;5967;48.944;9.240;2022-07-23T01:13:16;24.60;99.90
11820;DHT22;5967;48.944;9.240;2022-07-23T01:15:42;24.60;99.90
11820;DHT22;5967;48.944;9.240;2022-07-23T01:18:08;24.50;99.90
11820;DHT22;5967;48.944;9.240;2022-07-23T01:20:34;24.50;99.90
11820;DHT22;5967;48.944;9.240;2022-07-23T01:23:00;24.40;99.90
11820;DHT22;5967;48.944;9.240;2022-07-23T01:25:26;24.40;99.90
11820;DHT22;5967;48.944;9.240;2022-07-23T01:27:54;24.40;99.90
11820;DHT22;5967;48.944;9.240;2022-07-23T01:30:20;24.40;99.90
11820;DHT22;5967;48.944;9.240;2022-07-23T01:32:46;24.40;99.90
11820;DHT22;5967;48.944;9.240;2022-07-23T01:35:12;24.30;99.90
11820;DHT22;5967;48.944;9.240;2022-07-23T01:37:38;24.30;99.90
11820;DHT22;5967;48.944;9.240;2022-07-23T01:40:04;24.30;99.90
11820;DHT22;5967;48.944;9.240;2022-07-23T01:42:30;24.20;99.90
11820;DHT22;5967;48.944;9.240;2022-07-23T01:44:56;24.20;99.90
11820;DHT22;5967;48.944;9.240;2022-07-23T01:47:22;24.20;99.90
11820;DHT22;5967;48.944;9.240;2022-07-23T01:49:47;24.10;99.90
11820;DHT22;5967;48.944;9.240;2022-07-23T01:52:13;24.10;99.90
11820;DHT22;5967;48.944;9.240;2022-07-23T01:54:39;24.10;99.90
11820;DHT22;5967;48.944;9.240;2022-07-23T01:57:05;24.00;99.90
11820;DHT22;5967;48.944;9.240;2022-07-23T01:59:32;24.00;99.90
11820;DHT22;5967;48.944;9.240;2022-07-23T02:01:57;23.90;99.90
11820;DHT22;5967;48.944;9.240;2022-07-23T02:04:24;23.90;99.90
11820;DHT22;5967;48.944;9.240;2022-07-23T02:06:51;23.90;99.90
11820;DHT22;5967;48.944;9.240;2022-07-23T02:09:17;23.90;99.90
11820;DHT22;5967;48.944;9.240;2022-07-23T02:11:43;23.80;99.90
11820;DHT22;5967;48.944;9.240;2022-07-23T02:14:09;23.80;99.90
11820;DHT22;5967;48.944;9.240;2022-07-23T02:16:34;23.70;99.90
11820;DHT22;5967;48.944;9.240;2022-07-23T02:19:00;23.70;99.90
11820;DHT22;5967;48.944;9.240;2022-07-23T02:21:26;23.60;99.90
11820;DHT22;5967;48.944;9.240;2022-07-23T02:23:51;23.60;99.90
11820;DHT22;5967;48.944;9.240;2022-07-23T02:26:17;23.60;99.90
11820;DHT22;5967;48.944;9.240;2022-07-23T02:28:43;23.50;99.90
11820;DHT22;5967;48.944;9.240;2022-07-23T02:31:08;23.40;99.90
11820;DHT22;5967;48.944;9.240;2022-07-23T02:33:34;23.40;99.90
11820;DHT22;5967;48.944;9.240;2022-07-23T02:35:59;23.40;99.90
11820;DHT22;5967;48.944;9.240;2022-07-23T02:38:25;23.40;99.90
11820;DHT22;5967;48.944;9.240;2022-07-23T02:40:51;23.40;99.90
11820;DHT22;5967;48.944;9.240;2022-07-23T02:43:17;23.40;99.90
11820;DHT22;5967;48.944;9.240;2022-07-23T02:45:42;23.40;99.90
11820;DHT22;5967;48.944;9.240;2022-07-23T02:48:08;23.30;99.90
11820;DHT22;5967;48.944;9.240;2022-07-23T02:50:34;23.30;99.90
11820;DHT22;5967;48.944;9.240;2022-07-23T02:53:00;23.30;99.90
11820;DHT22;5967;48.944;9.240;2022-07-23T02:55:26;23.30;99.90
11820;DHT22;5967;48.944;9.240;2022-07-23T02:57:52;23.20;99.90
11820;DHT22;5967;48.944;9.240;2022-07-23T03:00:18;23.20;99.90
11820;DHT22;5967;48.944;9.240;2022-07-23T03:02:43;23.20;99.90
11820;DHT22;5967;48.944;9.240;2022-07-23T03:05:09;23.10;99.90
11820;DHT22;5967;48.944;9.240;2022-07-23T03:07:38;23.10;99.90
11820;DHT22;5967;48.944;9.240;2022-07-23T03:10:03;23.10;99.90
11820;DHT22;5967;48.944;9.240;2022-07-23T03:12:29;23.20;99.90
11820;DHT22;5967;48.944;9.240;2022-07-23T03:14:55;23.20;99.90
11820;DHT22;5967;48.944;9.240;2022-07-23T03:17:21;23.20;99.90
11820;DHT22;5967;48.944;9.240;2022-07-23T03:19:46;23.20;99.90
11820;DHT22;5967;48.944;9.240;2022-07-23T03:22:12;23.20;99.90
11820;DHT22;5967;48.944;9.240;2022-07-23T03:24:37;23.10;99.90
11820;DHT22;5967;48.944;9.240;2022-07-23T03:27:23;23.10;99.90
11820;DHT22;5967;48.944;9.240;2022-07-23T03:29:50;23.10;99.90
11820;DHT22;5967;48.944;9.240;2022-07-23T03:32:16;23.00;99.90
11820;DHT22;5967;48.944;9.240;2022-07-23T03:34:42;23.00;99.90
11820;DHT22;5967;48.944;9.240;2022-07-23T03:37:07;22.90;99.90
11820;DHT22;5967;48.944;9.240;2022-07-23T03:39:33;22.90;99.90
11820;DHT22;5967;48.944;9.240;2022-07-23T03:41:59;22.90;99.90
11820;DHT22;5967;48.944;9.240;2022-07-23T03:44:24;22.90;99.90
11820;DHT22;5967;48.944;9.240;2022-07-23T03:46:50;22.80;99.90
11820;DHT22;5967;48.944;9.240;2022-07-23T03:49:16;22.80;99.90
11820;DHT22;5967;48.944;9.240;2022-07-23T03:51:42;22.70;99.90
11820;DHT22;5967;48.944;9.240;2022-07-23T03:54:09;22.70;99.90
11820;DHT22;5967;48.944;9.240;2022-07-23T03:59:57;22.70;99.90
11820;DHT22;5967;48.944;9.240;2022-07-23T04:02:22;22.70;99.90
11820;DHT22;5967;48.944;9.240;2022-07-23T04:04:48;22.70;99.90
11820;DHT22;5967;48.944;9.240;2022-07-23T04:07:14;22.70;99.90
11820;DHT22;5967;48.944;9.240;2022-07-23T04:09:40;22.70;99.90
11820;DHT22;5967;48.944;9.240;2022-07-23T04:12:06;22.70;99.90
11820;DHT22;5967;48.944;9.240;2022-07-23T04:14:33;22.70;99.90
11820;DHT22;5967;48.944;9.240;2022-07-23T04:17:05;22.60;99.90
11820;DHT22;5967;48.944;9.240;2022-07-23T04:19:33;22.60;99.90
11820;DHT22;5967;48.944;9.240;2022-07-23T04:22:01;22.60;99.90
11820;DHT22;5967;48.944;9.240;2022-07-23T04:24:26;22.60;99.90
11820;DHT22;5967;48.944;9.240;2022-07-23T04:26:52;22.70;99.90
11820;DHT22;5967;48.944;9.240;2022-07-23T04:29:18;22.70;99.90
11820;DHT22;5967;48.944;9.240;2022-07-23T04:31:44;22.70;99.90
11820;DHT22;5967;48.944;9.240;2022-07-23T04:34:09;22.70;99.90
11820;DHT22;5967;48.944;9.240;2022-07-23T04:36:36;22.80;99.90
11820;DHT22;5967;48.944;9.240;2022-07-23T04:39:02;22.80;99.90
11820;DHT22;5967;48.944;9.240;2022-07-23T04:41:27;22.90;99.90
11820;DHT22;5967;48.944;9.240;2022-07-23T04:43:53;22.90;99.90
11820;DHT22;5967;48.944;9.240;2022-07-23T04:46:19;22.90;99.90
11820;DHT22;5967;48.944;9.240;2022-07-23T04:48:44;22.90;99.90
11820;DHT22;5967;48.944;9.240;2022-07-23T04:51:10;23.00;99.90
11820;DHT22;5967;48.944;9.240;2022-07-23T04:53:37;23.00;99.90
11820;DHT22;5967;48.944;9.240;2022-07-23T04:56:04;23.00;99.90
11820;DHT22;5967;48.944;9.240;2022-07-23T04:58:29;23.10;99.90
11820;DHT22;5967;48.944;9.240;2022-07-23T05:00:57;23.10;99.90
11820;DHT22;5967;48.944;9.240;2022-07-23T05:03:23;23.20;99.90
11820;DHT22;5967;48.944;9.240;2022-07-23T05:05:49;23.10;99.90
11820;DHT22;5967;48.944;9.240;2022-07-23T05:08:15;23.10;99.90
11820;DHT22;5967;48.944;9.240;2022-07-23T05:10:40;23.10;99.90
11820;DHT22;5967;48.944;9.240;2022-07-23T05:13:06;23.10;99.90
11820;DHT22;5967;48.944;9.240;2022-07-23T05:15:34;23.20;99.90
11820;DHT22;5967;48.944;9.240;2022-07-23T05:18:03;23.20;99.90
11820;DHT22;5967;48.944;9.240;2022-07-23T05:20:29;23.20;99.90
11820;DHT22;5967;48.944;9.240;2022-07-23T05:22:54;23.20;99.90
11820;DHT22;5967;48.944;9.240;2022-07-23T05:25:20;23.20;99.90
11820;DHT22;5967;48.944;9.240;2022-07-23T05:27:46;23.30;99.90
11820;DHT22;5967;48.944;9.240;2022-07-23T05:30:12;23.40;99.90
11820;DHT22;5967;48.944;9.240;2022-07-23T05:32:37;23.60;99.90
11820;DHT22;5967;48.944;9.240;2022-07-23T05:35:05;23.70;99.90
11820;DHT22;5967;48.944;9.240;2022-07-23T05:37:31;23.90;99.90
11820;DHT22;5967;48.944;9.240;2022-07-23T05:40:03;23.90;99.90
11820;DHT22;5967;48.944;9.240;2022-07-23T05:42:31;24.00;99.90
11820;DHT22;5967;48.944;9.240;2022-07-23T05:44:57;24.00;99.90
11820;DHT22;5967;48.944;9.240;2022-07-23T05:47:22;23.80;99.90
11820;DHT22;5967;48.944;9.240;2022-07-23T05:49:48;23.60;99.90
11820;DHT22;5967;48.944;9.240;2022-07-23T05:52:14;23.50;99.90
11820;DHT22;5967;48.944;9.240;2022-07-23T05:54:39;23.30;99.90
11820;DHT22;5967;48.944;9.240;2022-07-23T05:57:05;23.20;99.90
11820;DHT22;5967;48.944;9.240;2022-07-23T05:59:31;23.10;99.90
11820;DHT22;5967;48.944;9.240;2022-07-23T06:01:57;23.00;99.90
11820;DHT22;5967;48.944;9.240;2022-07-23T06:04:22;22.90;99.90
11820;DHT22;5967;48.944;9.240;2022-07-23T06:06:48;22.80;99.90
11820;DHT22;5967;48.944;9.240;2022-07-23T06:09:13;22.70;99.90
11820;DHT22;5967;48.944;9.240;2022-07-23T06:11:40;22.60;99.90
11820;DHT22;5967;48.944;9.240;2022-07-23T06:14:06;22.50;99.90
11820;DHT22;5967;48.944;9.240;2022-07-23T06:16:31;22.50;99.90
11820;DHT22;5967;48.944;9.240;2022-07-23T06:18:57;22.40;99.90
11820;DHT22;5967;48.944;9.240;2022-07-23T06:21:23;22.30;99.90
11820;DHT22;5967;48.944;9.240;2022-07-23T06:23:48;22.30;99.90
11820;DHT22;5967;48.944;9.240;2022-07-23T06:26:14;22.30;99.90
11820;DHT22;5967;48.944;9.240;2022-07-23T06:28:42;22.20;99.90
11820;DHT22;5967;48.944;9.240;2022-07-23T06:31:07;22.10;99.90
11820;DHT22;5967;48.944;9.240;2022-07-23T06:33:33;22.00;99.90
11820;DHT22;5967;48.944;9.240;2022-07-23T06:35:59;21.90;99.90
11820;DHT22;5967;48.944;9.240;2022-07-23T06:38:28;21.90;99.90
11820;DHT22;5967;48.944;9.240;2022-07-23T06:40:54;22.00;99.90
11820;DHT22;5967;48.944;9.240;2022-07-23T06:43:19;22.10;99.90
11820;DHT22;5967;48.944;9.240;2022-07-23T06:45:45;22.20;99.90
11820;DHT22;5967;48.944;9.240;2022-07-23T06:48:16;22.30;99.90
11820;DHT22;5967;48.944;9.240;2022-07-23T06:50:41;22.30;99.90
11820;DHT22;5967;48.944;9.240;2022-07-23T06:53:07;22.40;99.90
11820;DHT22;5967;48.944;9.240;2022-07-23T06:55:33;22.40;99.90
11820;DHT22;5967;48.944;9.240;2022-07-23T06:58:00;22.40;99.90
11820;DHT22;5967;48.944;9.240;2022-07-23T07:00:26;22.40;99.90
11820;DHT22;5967;48.944;9.240;2022-07-23T07:02:53;22.40;99.90
11820;DHT22;5967;48.944;9.240;2022-07-23T07:05:19;22.30;99.90
11820;DHT22;5967;48.944;9.240;2022-07-23T07:07:45;22.20;99.90
11820;DHT22;5967;48.944;9.240;2022-07-23T07:10:10;22.10;99.90
11820;DHT22;5967;48.944;9.240;2022-07-23T07:12:37;22.00;99.90
11820;DHT22;5967;48.944;9.240;2022-07-23T07:15:03;21.80;99.90
11820;DHT22;5967;48.944;9.240;2022-07-23T07:17:31;21.70;99.90
11820;DHT22;5967;48.944;9.240;2022-07-23T07:19:57;21.60;99.90
11820;DHT22;5967;48.944;9.240;2022-07-23T07:22:22;21.50;99.90
11820;DHT22;5967;48.944;9.240;2022-07-23T07:24:48;21.30;99.90
11820;DHT22;5967;48.944;9.240;2022-07-23T07:27:14;21.20;99.90
11820;DHT22;5967;48.944;9.240;2022-07-23T07:29:39;21.00;99.90
11820;DHT22;5967;48.944;9.240;2022-07-23T07:32:05;20.80;99.90
11820;DHT22;5967;48.944;9.240;2022-07-23T07:34:31;20.60;99.90
11820;DHT22;5967;48.944;9.240;2022-07-23T07:36:59;20.40;99.90
11820;DHT22;5967;48.944;9.240;2022-07-23T07:39:25;20.10;99.90
11820;DHT22;5967;48.944;9.240;2022-07-23T07:41:51;19.90;99.90
11820;DHT22;5967;48.944;9.240;2022-07-23T07:44:16;19.80;99.90
11820;DHT22;5967;48.944;9.240;2022-07-23T07:46:42;19.80;99.90
11820;DHT22;5967;48.944;9.240;2022-07-23T07:49:08;19.80;99.90
11820;DHT22;5967;48.944;9.240;2022-07-23T07:51:33;19.80;99.90
11820;DHT22;5967;48.944;9.240;2022-07-23T07:54:00;19.90;99.90
11820;DHT22;5967;48.944;9.240;2022-07-23T07:56:26;19.90;99.90
11820;DHT22;5967;48.944;9.240;2022-07-23T07:58:51;20.10;99.90
11820;DHT22;5967;48.944;9.240;2022-07-23T08:01:17;20.30;99.90
11820;DHT22;5967;48.944;9.240;2022-07-23T08:03:44;20.60;99.90
11820;DHT22;5967;48.944;9.240;2022-07-23T08:06:13;20.90;99.90
11820;DHT22;5967;48.944;9.240;2022-07-23T08:08:38;21.10;99.90
11820;DHT22;5967;48.944;9.240;2022-07-23T08:11:04;21.20;99.90
11820;DHT22;5967;48.944;9.240;2022-07-23T08:13:30;21.40;99.90
11820;DHT22;5967;48.944;9.240;2022-07-23T08:15:55;21.40;99.90
11820;DHT22;5967;48.944;9.240;2022-07-23T08:18:21;21.50;99.90
11820;DHT22;5967;48.944;9.240;2022-07-23T08:20:46;21.50;99.90
11820;DHT22;5967;48.944;9.240;2022-07-23T08:23:12;21.40;99.90
11820;DHT22;5967;48.944;9.240;2022-07-23T08:25:40;21.40;99.90
11820;DHT22;5967;48.944;9.240;2022-07-23T08:28:08;21.30;99.90
11820;DHT22;5967;48.944;9.240;2022-07-23T08:30:37;21.30;99.90
11820;DHT22;5967;48.944;9.240;2022-07-23T08:33:09;21.30;99.90
11820;DHT22;5967;48.944;9.240;2022-07-23T08:35:49;21.20;99.90
11820;DHT22;5967;48.944;9.240;2022-07-23T08:38:18;21.20;99.90
11820;DHT22;5967;48.944;9.240;2022-07-23T08:40:49;21.20;99.90
11820;DHT22;5967;48.944;9.240;2022-07-23T08:43:18;21.30;99.90
11820;DHT22;5967;48.944;9.240;2022-07-23T08:45:46;21.30;99.90
11820;DHT22;5967;48.944;9.240;2022-07-23T08:50:42;21.60;99.90
11820;DHT22;5967;48.944;9.240;2022-07-23T08:53:09;21.70;99.90
11820;DHT22;5967;48.944;9.240;2022-07-23T08:55:35;21.90;99.90
11820;DHT22;5967;48.944;9.240;2022-07-23T08:58:01;22.00;99.90
11820;DHT22;5967;48.944;9.240;2022-07-23T09:00:27;22.10;99.90
11820;DHT22;5967;48.944;9.240;2022-07-23T09:02:52;22.20;99.90
11820;DHT22;5967;48.944;9.240;2022-07-23T09:05:19;22.30;99.90
11820;DHT22;5967;48.944;9.240;2022-07-23T09:08:24;22.40;99.90
11820;DHT22;5967;48.944;9.240;2022-07-23T09:10:55;22.50;99.90
11820;DHT22;5967;48.944;9.240;2022-07-23T09:13:40;22.60;99.90
11820;DHT22;5967;48.944;9.240;2022-07-23T09:16:18;22.70;99.90
11820;DHT22;5967;48.944;9.240;2022-07-23T09:18:52;22.90;99.90
11820;DHT22;5967;48.944;9.240;2022-07-23T09:21:26;23.00;99.90
11820;DHT22;5967;48.944;9.240;2022-07-23T09:24:02;23.10;99.90
11820;DHT22;5967;48.944;9.240;2022-07-23T09:26:29;23.10;99.90
11820;DHT22;5967;48.944;9.240;2022-07-23T09:29:06;23.10;99.90
11820;DHT22;5967;48.944;9.240;2022-07-23T09:31:45;23.00;99.90
11820;DHT22;5967;48.944;9.240;2022-07-23T09:34:17;23.00;99.90
11820;DHT22;5967;48.944;9.240;2022-07-23T09:36:47;23.10;99.90
11820;DHT22;5967;48.944;9.240;2022-07-23T09:39:29;23.10;99.90
11820;DHT22;5967;48.944;9.240;2022-07-23T09:41:55;23.20;99.90
11820;DHT22;5967;48.944;9.240;2022-07-23T09:44:21;23.30;99.90
11820;DHT22;5967;48.944;9.240;2022-07-23T09:46:49;23.30;99.90
11820;DHT22;5967;48.944;9.240;2022-07-23T09:51:49;23.60;99.90
11820;DHT22;5967;48.944;9.240;2022-07-23T09:54:37;23.80;99.90
11820;DHT22;5967;48.944;9.240;2022-07-23T09:57:07;23.90;99.90
11820;DHT22;5967;48.944;9.240;2022-07-23T09:59:38;23.90;99.90
11820;DHT22;5967;48.944;9.240;2022-07-23T10:02:05;23.90;99.90
11820;DHT22;5967;48.944;9.240;2022-07-23T10:04:31;23.90;99.90
11820;DHT22;5967;48.944;9.240;2022-07-23T10:06:59;23.80;99.90
11820;DHT22;5967;48.944;9.240;2022-07-23T10:09:31;23.90;99.90
11820;DHT22;5967;48.944;9.240;2022-07-23T10:12:02;24.10;99.90
11820;DHT22;5967;48.944;9.240;2022-07-23T10:14:45;24.20;99.90
11820;DHT22;5967;48.944;9.240;2022-07-23T10:17:11;24.40;99.90
11820;DHT22;5967;48.944;9.240;2022-07-23T10:19:42;24.50;99.90
11820;DHT22;5967;48.944;9.240;2022-07-23T10:22:12;24.70;99.90
11820;DHT22;5967;48.944;9.240;2022-07-23T10:30:31;25.20;99.90
11820;DHT22;5967;48.944;9.240;2022-07-23T10:36:11;25.40;99.90
11820;DHT22;5967;48.944;9.240;2022-07-23T10:38:56;25.40;99.90
11820;DHT22;5967;48.944;9.240;2022-07-23T10:41:37;25.30;99.90
11820;DHT22;5967;48.944;9.240;2022-07-23T10:46:46;25.60;99.90
11820;DHT22;5967;48.944;9.240;2022-07-23T10:49:26;25.60;99.90
11820;DHT22;5967;48.944;9.240;2022-07-23T10:52:27;25.60;99.90
11820;DHT22;5967;48.944;9.240;2022-07-23T10:54:55;25.50;99.90
11820;DHT22;5967;48.944;9.240;2022-07-23T10:57:26;25.50;99.90
11820;DHT22;5967;48.944;9.240;2022-07-23T11:02:40;25.70;99.90
11820;DHT22;5967;48.944;9.240;2022-07-23T11:05:11;25.90;99.90
11820;DHT22;5967;48.944;9.240;2022-07-23T11:13:27;26.40;99.90
11820;DHT22;5967;48.944;9.240;2022-07-23T11:24:00;27.10;99.90
11820;DHT22;5967;48.944;9.240;2022-07-23T11:31:56;27.50;99.90
11820;DHT22;5967;48.944;9.240;2022-07-23T11:37:00;27.60;99.90
11820;DHT22;5967;48.944;9.240;2022-07-23T11:39:28;27.60;99.90
11820;DHT22;5967;48.944;9.240;2022-07-23T11:41:54;27.60;99.90
11820;DHT22;5967;48.944;9.240;2022-07-23T11:44:31;27.60;99.90
11820;DHT22;5967;48.944;9.240;2022-07-23T11:46:59;27.60;99.90
11820;DHT22;5967;48.944;9.240;2022-07-23T11:49:26;27.50;99.90
11820;DHT22;5967;48.944;9.240;2022-07-23T11:52:11;27.50;99.90
11820;DHT22;5967;48.944;9.240;2022-07-23T11:55:04;27.50;99.90
11820;DHT22;5967;48.944;9.240;2022-07-23T11:57:32;27.30;99.90
11820;DHT22;5967;48.944;9.240;2022-07-23T12:00:12;27.20;99.90
11820;DHT22;5967;48.944;9.240;2022-07-23T12:02:50;27.20;99.90
11820;DHT22;5967;48.944;9.240;2022-07-23T12:05:24;27.20;99.90
11820;DHT22;5967;48.944;9.240;2022-07-23T12:07:52;27.20;99.90
11820;DHT22;5967;48.944;9.240;2022-07-23T12:13:00;27.50;99.90
11820;DHT22;5967;48.944;9.240;2022-07-23T12:15:56;27.50;99.90
11820;DHT22;5967;48.944;9.240;2022-07-23T12:18:26;27.50;99.90
11820;DHT22;5967;48.944;9.240;2022-07-23T12:20:57;27.50;99.90
11820;DHT22;5967;48.944;9.240;2022-07-23T12:23:24;27.50;99.90
11820;DHT22;5967;48.944;9.240;2022-07-23T12:25:52;27.60;99.90
11820;DHT22;5967;48.944;9.240;2022-07-23T12:28:29;27.70;99.90
11820;DHT22;5967;48.944;9.240;2022-07-23T12:30:57;27.80;99.90
11820;DHT22;5967;48.944;9.240;2022-07-23T12:33:27;28.00;99.90
11820;DHT22;5967;48.944;9.240;2022-07-23T12:35:55;28.30;99.90
11820;DHT22;5967;48.944;9.240;2022-07-23T12:38:23;28.40;99.90
11820;DHT22;5967;48.944;9.240;2022-07-23T12:43:38;28.50;99.90
11820;DHT22;5967;48.944;9.240;2022-07-23T12:46:16;28.60;99.90
11820;DHT22;5967;48.944;9.240;2022-07-23T12:51:31;28.70;99.90
11820;DHT22;5967;48.944;9.240;2022-07-23T12:54:04;28.60;99.90
11820;DHT22;5967;48.944;9.240;2022-07-23T12:56:35;28.70;99.90
11820;DHT22;5967;48.944;9.240;2022-07-23T13:01:31;28.60;99.90
11820;DHT22;5967;48.944;9.240;2022-07-23T13:04:11;28.60;99.90
11820;DHT22;5967;48.944;9.240;2022-07-23T13:06:38;28.60;99.90
11820;DHT22;5967;48.944;9.240;2022-07-23T13:09:06;28.60;99.90
11820;DHT22;5967;48.944;9.240;2022-07-23T13:11:35;28.60;99.90
11820;DHT22;5967;48.944;9.240;2022-07-23T13:14:02;28.60;99.90
11820;DHT22;5967;48.944;9.240;2022-07-23T13:16:29;28.70;99.90
11820;DHT22;5967;48.944;9.240;2022-07-23T13:18:55;28.80;99.90
11820;DHT22;5967;48.944;9.240;2022-07-23T13:21:25;28.80;99.90
11820;DHT22;5967;48.944;9.240;2022-07-23T13:23:50;28.80;99.90
11820;DHT22;5967;48.944;9.240;2022-07-23T13:26:16;28.70;99.90
11820;DHT22;5967;48.944;9.240;2022-07-23T13:28:42;28.50;99.90
11820;DHT22;5967;48.944;9.240;2022-07-23T13:31:08;28.40;99.90
11820;DHT22;5967;48.944;9.240;2022-07-23T13:33:34;28.30;99.90
11820;DHT22;5967;48.944;9.240;2022-07-23T13:36:00;28.30;99.90
11820;DHT22;5967;48.944;9.240;2022-07-23T13:38:26;28.30;99.90
11820;DHT22;5967;48.944;9.240;2022-07-23T13:40:52;28.20;99.90
11820;DHT22;5967;48.944;9.240;2022-07-23T13:43:20;28.10;99.90
11820;DHT22;5967;48.944;9.240;2022-07-23T13:45:46;28.10;99.90
11820;DHT22;5967;48.944;9.240;2022-07-23T13:48:13;28.10;99.90
11820;DHT22;5967;48.944;9.240;2022-07-23T13:50:40;28.20;99.90
11820;DHT22;5967;48.944;9.240;2022-07-23T13:53:09;28.20;99.90
11820;DHT22;5967;48.944;9.240;2022-07-23T13:55:36;28.20;99.90
11820;DHT22;5967;48.944;9.240;2022-07-23T13:58:04;28.20;99.90
11820;DHT22;5967;48.944;9.240;2022-07-23T14:00:31;28.30;99.90
11820;DHT22;5967;48.944;9.240;2022-07-23T14:02:58;28.40;99.90
11820;DHT22;5967;48.944;9.240;2022-07-23T14:05:27;28.50;99.90
11820;DHT22;5967;48.944;9.240;2022-07-23T14:07:53;28.60;99.90
11820;DHT22;5967;48.944;9.240;2022-07-23T14:10:21;28.60;99.90
11820;DHT22;5967;48.944;9.240;2022-07-23T14:12:48;28.70;99.90
11820;DHT22;5967;48.944;9.240;2022-07-23T14:15:18;28.70;99.90
11820;DHT22;5967;48.944;9.240;2022-07-23T14:17:45;28.80;99.90
11820;DHT22;5967;48.944;9.240;2022-07-23T14:20:12;28.80;99.90
11820;DHT22;5967;48.944;9.240;2022-07-23T14:22:41;28.90;99.90
11820;DHT22;5967;48.944;9.240;2022-07-23T14:25:09;29.00;99.90
11820;DHT22;5967;48.944;9.240;2022-07-23T14:27:35;29.10;99.90
11820;DHT22;5967;48.944;9.240;2022-07-23T14:30:03;29.00;99.90
11820;DHT22;5967;48.944;9.240;2022-07-23T14:32:34;29.00;99.90
11820;DHT22;5967;48.944;9.240;2022-07-23T14:35:06;29.00;99.90
11820;DHT22;5967;48.944;9.240;2022-07-23T14:37:32;28.90;99.90
11820;DHT22;5967;48.944;9.240;2022-07-23T14:39:58;28.90;99.90
11820;DHT22;5967;48.944;9.240;2022-07-23T14:42:24;29.00;99.90
11820;DHT22;5967;48.944;9.240;2022-07-23T14:44:50;29.00;99.90
11820;DHT22;5967;48.944;9.240;2022-07-23T14:47:15;29.00;99.90
11820;DHT22;5967;48.944;9.240;2022-07-23T14:49:44;29.00;99.90
11820;DHT22;5967;48.944;9.240;2022-07-23T14:52:10;29.10;99.90
11820;DHT22;5967;48.944;9.240;2022-07-23T14:54:36;29.10;99.90
11820;DHT22;5967;48.944;9.240;2022-07-23T14:57:03;29.20;99.90
11820;DHT22;5967;48.944;9.240;2022-07-23T14:59:29;29.30;99.90
11820;DHT22;5967;48.944;9.240;2022-07-23T15:01:56;29.30;99.90
11820;DHT22;5967;48.944;9.240;2022-07-23T15:04:21;29.30;99.90
11820;DHT22;5967;48.944;9.240;2022-07-23T15:06:50;29.40;99.90
11820;DHT22;5967;48.944;9.240;2022-07-23T15:09:16;29.30;99.90
11820;DHT22;5967;48.944;9.240;2022-07-23T15:11:50;29.20;99.90
11820;DHT22;5967;48.944;9.240;2022-07-23T15:14:16;29.00;99.90
11820;DHT22;5967;48.944;9.240;2022-07-23T15:16:41;28.90;99.90
11820;DHT22;5967;48.944;9.240;2022-07-23T15:19:13;28.80;99.90
11820;DHT22;5967;48.944;9.240;2022-07-23T15:21:41;28.70;99.90
11820;DHT22;5967;48.944;9.240;2022-07-23T15:24:10;28.70;99.90
11820;DHT22;5967;48.944;9.240;2022-07-23T15:26:44;28.70;99.90
11820;DHT22;5967;48.944;9.240;2022-07-23T15:29:12;28.60;99.90
11820;DHT22;5967;48.944;9.240;2022-07-23T15:31:38;28.60;99.90
11820;DHT22;5967;48.944;9.240;2022-07-23T15:34:04;28.60;99.90
11820;DHT22;5967;48.944;9.240;2022-07-23T15:36:38;28.50;99.90
11820;DHT22;5967;48.944;9.240;2022-07-23T15:39:07;28.40;99.90
11820;DHT22;5967;48.944;9.240;2022-07-23T15:41:33;28.40;99.90
11820;DHT22;5967;48.944;9.240;2022-07-23T15:44:04;28.30;99.90
11820;DHT22;5967;48.944;9.240;2022-07-23T15:46:32;28.30;99.90
11820;DHT22;5967;48.944;9.240;2022-07-23T15:48:58;28.20;99.90
11820;DHT22;5967;48.944;9.240;2022-07-23T15:51:24;28.20;99.90
11820;DHT22;5967;48.944;9.240;2022-07-23T15:53:49;28.10;99.90
11820;DHT22;5967;48.944;9.240;2022-07-23T15:56:18;28.20;99.90
11820;DHT22;5967;48.944;9.240;2022-07-23T15:58:46;28.20;99.90
11820;DHT22;5967;48.944;9.240;2022-07-23T16:01:12;28.20;99.90
11820;DHT22;5967;48.944;9.240;2022-07-23T16:03:38;28.30;99.90
11820;DHT22;5967;48.944;9.240;2022-07-23T16:06:05;28.30;99.90
11820;DHT22;5967;48.944;9.240;2022-07-23T16:08:34;28.40;99.90
11820;DHT22;5967;48.944;9.240;2022-07-23T16:11:02;28.50;99.90
11820;DHT22;5967;48.944;9.240;2022-07-23T16:13:28;28.70;99.90
11820;DHT22;5967;48.944;9.240;2022-07-23T16:15:54;28.70;99.90
11820;DHT22;5967;48.944;9.240;2022-07-23T16:18:21;28.70;99.90
11820;DHT22;5967;48.944;9.240;2022-07-23T16:20:48;28.60;99.90
11820;DHT22;5967;48.944;9.240;2022-07-23T16:23:15;28.60;99.90
11820;DHT22;5967;48.944;9.240;2022-07-23T16:25:44;28.50;99.90
11820;DHT22;5967;48.944;9.240;2022-07-23T16:28:10;28.50;99.90
11820;DHT22;5967;48.944;9.240;2022-07-23T16:30:40;28.40;99.90
11820;DHT22;5967;48.944;9.240;2022-07-23T16:33:06;28.40;99.90
11820;DHT22;5967;48.944;9.240;2022-07-23T16:35:32;28.40;99.90
11820;DHT22;5967;48.944;9.240;2022-07-23T16:37:58;28.40;99.90
11820;DHT22;5967;48.944;9.240;2022-07-23T16:40:27;28.30;99.90
11820;DHT22;5967;48.944;9.240;2022-07-23T16:42:53;28.30;99.90